Terminal Aerodrome Forecast
Issued by NWS

Home | Current Version | Previous Version | Text Only | Print | Product List | Glossary On
Versions: 1 2 3 4 5 6 7 8 9 10 11 12 13 14 15 16 17 18 19 20 21 22 23 24 25 26
000
FTUS44 KHGX 221135
TAFLBX
TAF
KLBX 221135Z 2212/2312 02005KT P6SM MIFG SCT300
     FM221330 05007KT P6SM SCT250
      TEMPO 2220/2224 09006KT
     FM230900 00000KT P6SM MIFG SKC=

USA.gov is the U.S. government's official web portal to all federal, state and local government web resources and services.